sensor_id;sensor_type;location;lat;lon;timestamp;P1;durP1;ratioP1;P2;durP2;ratioP2
52764;SDS011;38650;44.536;18.664;2023-12-20T00:00:52;150.13;;;106.90;;
52764;SDS011;38650;44.536;18.664;2023-12-20T00:03:18;146.25;;;101.03;;
52764;SDS011;38650;44.536;18.664;2023-12-20T00:05:43;128.05;;;93.63;;
52764;SDS011;38650;44.536;18.664;2023-12-20T00:08:09;121.28;;;83.95;;
52764;SDS011;38650;44.536;18.664;2023-12-20T00:10:35;124.60;;;85.22;;
52764;SDS011;38650;44.536;18.664;2023-12-20T00:13:00;141.38;;;95.30;;
52764;SDS011;38650;44.536;18.664;2023-12-20T00:15:26;111.90;;;77.32;;
52764;SDS011;38650;44.536;18.664;2023-12-20T00:17:52;104.82;;;71.18;;
52764;SDS011;38650;44.536;18.664;2023-12-20T00:20:17;89.78;;;62.17;;
52764;SDS011;38650;44.536;18.664;2023-12-20T00:22:43;85.85;;;59.40;;
52764;SDS011;38650;44.536;18.664;2023-12-20T00:25:09;78.50;;;55.28;;
52764;SDS011;38650;44.536;18.664;2023-12-20T00:27:35;94.15;;;60.75;;
52764;SDS011;38650;44.536;18.664;2023-12-20T00:30:00;76.25;;;51.25;;
52764;SDS011;38650;44.536;18.664;2023-12-20T00:32:26;64.10;;;46.47;;
52764;SDS011;38650;44.536;18.664;2023-12-20T00:34:52;63.10;;;44.22;;
52764;SDS011;38650;44.536;18.664;2023-12-20T00:37:17;67.47;;;46.53;;
52764;SDS011;38650;44.536;18.664;2023-12-20T00:39:43;82.70;;;54.58;;
52764;SDS011;38650;44.536;18.664;2023-12-20T00:42:09;86.93;;;57.53;;
52764;SDS011;38650;44.536;18.664;2023-12-20T00:44:34;66.65;;;44.42;;
52764;SDS011;38650;44.536;18.664;2023-12-20T00:47:00;97.70;;;60.80;;
52764;SDS011;38650;44.536;18.664;2023-12-20T00:49:26;77.90;;;50.45;;
52764;SDS011;38650;44.536;18.664;2023-12-20T00:51:52;65.32;;;46.70;;
52764;SDS011;38650;44.536;18.664;2023-12-20T00:54:18;66.22;;;45.13;;
52764;SDS011;38650;44.536;18.664;2023-12-20T00:56:43;66.28;;;45.40;;
52764;SDS011;38650;44.536;18.664;2023-12-20T00:59:09;59.60;;;43.20;;
52764;SDS011;38650;44.536;18.664;2023-12-20T01:01:35;69.72;;;48.03;;
52764;SDS011;38650;44.536;18.664;2023-12-20T01:04:01;62.15;;;42.20;;
52764;SDS011;38650;44.536;18.664;2023-12-20T01:06:27;62.15;;;41.95;;
52764;SDS011;38650;44.536;18.664;2023-12-20T01:08:53;105.53;;;65.47;;
52764;SDS011;38650;44.536;18.664;2023-12-20T01:11:18;77.40;;;50.10;;
52764;SDS011;38650;44.536;18.664;2023-12-20T01:13:44;69.55;;;47.28;;
52764;SDS011;38650;44.536;18.664;2023-12-20T01:16:10;66.95;;;48.33;;
52764;SDS011;38650;44.536;18.664;2023-12-20T01:18:37;59.88;;;43.03;;
52764;SDS011;38650;44.536;18.664;2023-12-20T01:21:03;70.85;;;46.78;;
52764;SDS011;38650;44.536;18.664;2023-12-20T01:23:30;71.82;;;48.95;;
52764;SDS011;38650;44.536;18.664;2023-12-20T01:25:55;67.57;;;48.30;;
52764;SDS011;38650;44.536;18.664;2023-12-20T01:28:21;73.80;;;47.70;;
52764;SDS011;38650;44.536;18.664;2023-12-20T01:30:47;105.70;;;63.88;;
52764;SDS011;38650;44.536;18.664;2023-12-20T01:33:13;72.72;;;49.63;;
52764;SDS011;38650;44.536;18.664;2023-12-20T01:35:39;70.88;;;48.92;;
52764;SDS011;38650;44.536;18.664;2023-12-20T01:38:04;68.20;;;46.25;;
52764;SDS011;38650;44.536;18.664;2023-12-20T01:40:30;65.63;;;44.35;;
52764;SDS011;38650;44.536;18.664;2023-12-20T01:43:02;65.60;;;45.03;;
52764;SDS011;38650;44.536;18.664;2023-12-20T01:45:37;55.47;;;39.83;;
52764;SDS011;38650;44.536;18.664;2023-12-20T01:48:03;62.58;;;42.40;;
52764;SDS011;38650;44.536;18.664;2023-12-20T01:50:31;67.22;;;45.08;;
52764;SDS011;38650;44.536;18.664;2023-12-20T01:52:58;61.25;;;41.70;;
52764;SDS011;38650;44.536;18.664;2023-12-20T01:55:26;63.25;;;42.42;;
52764;SDS011;38650;44.536;18.664;2023-12-20T01:57:54;106.25;;;68.05;;
52764;SDS011;38650;44.536;18.664;2023-12-20T02:00:22;163.52;;;98.65;;
52764;SDS011;38650;44.536;18.664;2023-12-20T02:02:49;117.93;;;74.60;;
52764;SDS011;38650;44.536;18.664;2023-12-20T02:05:17;126.30;;;83.43;;
52764;SDS011;38650;44.536;18.664;2023-12-20T02:07:43;100.30;;;65.00;;
52764;SDS011;38650;44.536;18.664;2023-12-20T02:10:09;95.25;;;61.60;;
52764;SDS011;38650;44.536;18.664;2023-12-20T02:12:35;84.53;;;54.83;;
52764;SDS011;38650;44.536;18.664;2023-12-20T02:15:01;72.03;;;48.67;;
52764;SDS011;38650;44.536;18.664;2023-12-20T02:17:27;82.97;;;54.92;;
52764;SDS011;38650;44.536;18.664;2023-12-20T02:19:53;67.40;;;45.90;;
52764;SDS011;38650;44.536;18.664;2023-12-20T02:22:18;60.63;;;42.88;;
52764;SDS011;38650;44.536;18.664;2023-12-20T02:24:44;55.50;;;40.30;;
52764;SDS011;38650;44.536;18.664;2023-12-20T02:27:10;50.17;;;34.80;;
52764;SDS011;38650;44.536;18.664;2023-12-20T02:29:36;52.08;;;35.30;;
52764;SDS011;38650;44.536;18.664;2023-12-20T02:32:02;46.53;;;31.73;;
52764;SDS011;38650;44.536;18.664;2023-12-20T02:34:28;42.03;;;29.88;;
52764;SDS011;38650;44.536;18.664;2023-12-20T02:36:54;39.38;;;28.67;;
52764;SDS011;38650;44.536;18.664;2023-12-20T02:39:20;39.63;;;27.27;;
52764;SDS011;38650;44.536;18.664;2023-12-20T02:41:47;51.78;;;34.78;;
52764;SDS011;38650;44.536;18.664;2023-12-20T02:44:14;39.47;;;28.33;;
52764;SDS011;38650;44.536;18.664;2023-12-20T02:46:39;40.30;;;27.83;;
52764;SDS011;38650;44.536;18.664;2023-12-20T02:49:05;34.67;;;25.60;;
52764;SDS011;38650;44.536;18.664;2023-12-20T02:51:31;40.70;;;28.98;;
52764;SDS011;38650;44.536;18.664;2023-12-20T02:53:57;38.28;;;27.63;;
52764;SDS011;38650;44.536;18.664;2023-12-20T02:56:23;53.95;;;37.00;;
52764;SDS011;38650;44.536;18.664;2023-12-20T02:58:48;39.65;;;29.10;;
52764;SDS011;38650;44.536;18.664;2023-12-20T03:01:14;35.28;;;26.38;;
52764;SDS011;38650;44.536;18.664;2023-12-20T03:03:40;34.58;;;26.08;;
52764;SDS011;38650;44.536;18.664;2023-12-20T03:06:05;32.33;;;24.20;;
52764;SDS011;38650;44.536;18.664;2023-12-20T03:08:31;41.22;;;28.45;;
52764;SDS011;38650;44.536;18.664;2023-12-20T03:10:59;38.53;;;26.08;;
52764;SDS011;38650;44.536;18.664;2023-12-20T03:13:24;36.75;;;26.65;;
52764;SDS011;38650;44.536;18.664;2023-12-20T03:15:50;48.25;;;34.15;;
52764;SDS011;38650;44.536;18.664;2023-12-20T03:18:16;37.85;;;28.08;;
52764;SDS011;38650;44.536;18.664;2023-12-20T03:20:43;38.90;;;27.67;;
52764;SDS011;38650;44.536;18.664;2023-12-20T03:23:09;48.83;;;35.40;;
52764;SDS011;38650;44.536;18.664;2023-12-20T03:25:34;38.92;;;28.40;;
52764;SDS011;38650;44.536;18.664;2023-12-20T03:28:00;37.00;;;26.95;;
52764;SDS011;38650;44.536;18.664;2023-12-20T03:30:26;29.27;;;22.67;;
52764;SDS011;38650;44.536;18.664;2023-12-20T03:32:51;33.92;;;24.15;;
52764;SDS011;38650;44.536;18.664;2023-12-20T03:35:17;43.42;;;29.48;;
52764;SDS011;38650;44.536;18.664;2023-12-20T03:37:43;44.10;;;29.75;;
52764;SDS011;38650;44.536;18.664;2023-12-20T03:40:08;31.88;;;23.48;;
52764;SDS011;38650;44.536;18.664;2023-12-20T03:42:34;30.63;;;23.83;;
52764;SDS011;38650;44.536;18.664;2023-12-20T03:45:00;33.08;;;24.20;;
52764;SDS011;38650;44.536;18.664;2023-12-20T03:47:26;37.42;;;26.02;;
52764;SDS011;38650;44.536;18.664;2023-12-20T03:49:52;31.08;;;23.42;;
52764;SDS011;38650;44.536;18.664;2023-12-20T03:52:18;27.90;;;20.15;;
52764;SDS011;38650;44.536;18.664;2023-12-20T03:54:44;29.70;;;21.45;;
52764;SDS011;38650;44.536;18.664;2023-12-20T03:57:09;37.38;;;26.55;;
52764;SDS011;38650;44.536;18.664;2023-12-20T03:59:35;27.35;;;21.38;;
52764;SDS011;38650;44.536;18.664;2023-12-20T04:02:02;34.08;;;24.90;;
52764;SDS011;38650;44.536;18.664;2023-12-20T04:04:28;29.30;;;21.45;;
52764;SDS011;38650;44.536;18.664;2023-12-20T04:06:53;31.42;;;22.23;;
52764;SDS011;38650;44.536;18.664;2023-12-20T04:09:19;25.08;;;18.70;;
52764;SDS011;38650;44.536;18.664;2023-12-20T04:11:45;26.80;;;18.75;;
52764;SDS011;38650;44.536;18.664;2023-12-20T04:14:10;22.90;;;16.63;;
52764;SDS011;38650;44.536;18.664;2023-12-20T04:16:36;22.45;;;17.85;;
52764;SDS011;38650;44.536;18.664;2023-12-20T04:19:02;35.58;;;23.77;;
52764;SDS011;38650;44.536;18.664;2023-12-20T04:21:28;22.98;;;17.08;;
52764;SDS011;38650;44.536;18.664;2023-12-20T04:23:53;27.52;;;19.05;;
52764;SDS011;38650;44.536;18.664;2023-12-20T04:26:19;23.95;;;17.48;;
52764;SDS011;38650;44.536;18.664;2023-12-20T04:28:44;25.50;;;17.52;;
52764;SDS011;38650;44.536;18.664;2023-12-20T04:31:10;19.27;;;15.05;;
52764;SDS011;38650;44.536;18.664;2023-12-20T04:33:36;26.90;;;20.20;;
52764;SDS011;38650;44.536;18.664;2023-12-20T04:36:02;21.10;;;15.77;;
52764;SDS011;38650;44.536;18.664;2023-12-20T04:38:28;18.00;;;14.77;;
52764;SDS011;38650;44.536;18.664;2023-12-20T04:40:53;18.80;;;14.55;;
52764;SDS011;38650;44.536;18.664;2023-12-20T04:43:19;17.85;;;14.00;;
52764;SDS011;38650;44.536;18.664;2023-12-20T04:45:45;20.02;;;15.10;;
52764;SDS011;38650;44.536;18.664;2023-12-20T04:48:11;20.90;;;14.95;;
52764;SDS011;38650;44.536;18.664;2023-12-20T04:50:37;21.70;;;14.43;;
52764;SDS011;38650;44.536;18.664;2023-12-20T04:53:03;23.20;;;16.65;;
52764;SDS011;38650;44.536;18.664;2023-12-20T04:55:28;23.38;;;15.82;;
52764;SDS011;38650;44.536;18.664;2023-12-20T04:57:54;45.13;;;30.80;;
52764;SDS011;38650;44.536;18.664;2023-12-20T05:00:21;97.40;;;57.60;;
52764;SDS011;38650;44.536;18.664;2023-12-20T05:02:47;55.38;;;37.38;;
52764;SDS011;38650;44.536;18.664;2023-12-20T05:05:12;53.65;;;35.38;;
52764;SDS011;38650;44.536;18.664;2023-12-20T05:07:40;69.47;;;45.10;;
52764;SDS011;38650;44.536;18.664;2023-12-20T05:10:06;72.05;;;44.85;;
52764;SDS011;38650;44.536;18.664;2023-12-20T05:12:33;61.00;;;41.13;;
52764;SDS011;38650;44.536;18.664;2023-12-20T05:14:59;57.85;;;41.78;;
52764;SDS011;38650;44.536;18.664;2023-12-20T05:17:25;58.65;;;39.10;;
52764;SDS011;38650;44.536;18.664;2023-12-20T05:19:51;57.70;;;38.40;;
52764;SDS011;38650;44.536;18.664;2023-12-20T05:22:17;54.72;;;37.28;;
52764;SDS011;38650;44.536;18.664;2023-12-20T05:24:44;48.55;;;34.03;;
52764;SDS011;38650;44.536;18.664;2023-12-20T05:27:09;46.53;;;34.33;;
52764;SDS011;38650;44.536;18.664;2023-12-20T05:29:36;40.50;;;29.83;;
52764;SDS011;38650;44.536;18.664;2023-12-20T05:32:02;44.65;;;31.30;;
52764;SDS011;38650;44.536;18.664;2023-12-20T05:34:29;41.13;;;28.55;;
52764;SDS011;38650;44.536;18.664;2023-12-20T05:36:56;35.05;;;25.42;;
52764;SDS011;38650;44.536;18.664;2023-12-20T05:39:22;32.28;;;23.27;;
52764;SDS011;38650;44.536;18.664;2023-12-20T05:41:48;33.05;;;23.05;;
52764;SDS011;38650;44.536;18.664;2023-12-20T05:44:13;34.75;;;25.05;;
52764;SDS011;38650;44.536;18.664;2023-12-20T05:46:39;27.40;;;19.90;;
52764;SDS011;38650;44.536;18.664;2023-12-20T05:49:05;28.45;;;22.13;;
52764;SDS011;38650;44.536;18.664;2023-12-20T05:51:31;32.42;;;21.25;;
52764;SDS011;38650;44.536;18.664;2023-12-20T05:53:57;27.10;;;18.40;;
52764;SDS011;38650;44.536;18.664;2023-12-20T05:56:23;33.60;;;23.27;;
52764;SDS011;38650;44.536;18.664;2023-12-20T05:58:49;28.60;;;19.73;;
52764;SDS011;38650;44.536;18.664;2023-12-20T06:01:15;32.40;;;23.73;;
52764;SDS011;38650;44.536;18.664;2023-12-20T06:03:42;33.90;;;22.85;;
52764;SDS011;38650;44.536;18.664;2023-12-20T06:06:09;41.25;;;28.67;;
52764;SDS011;38650;44.536;18.664;2023-12-20T06:08:35;31.13;;;22.10;;
52764;SDS011;38650;44.536;18.664;2023-12-20T06:11:01;29.77;;;21.80;;
52764;SDS011;38650;44.536;18.664;2023-12-20T06:13:27;31.77;;;22.30;;
52764;SDS011;38650;44.536;18.664;2023-12-20T06:15:55;30.23;;;20.73;;
52764;SDS011;38650;44.536;18.664;2023-12-20T06:18:21;26.98;;;20.08;;
52764;SDS011;38650;44.536;18.664;2023-12-20T06:20:47;26.85;;;20.30;;
52764;SDS011;38650;44.536;18.664;2023-12-20T06:23:13;26.30;;;18.90;;
52764;SDS011;38650;44.536;18.664;2023-12-20T06:25:39;36.17;;;24.85;;
52764;SDS011;38650;44.536;18.664;2023-12-20T06:28:04;25.40;;;18.60;;
52764;SDS011;38650;44.536;18.664;2023-12-20T06:30:31;25.55;;;18.05;;
52764;SDS011;38650;44.536;18.664;2023-12-20T06:32:57;24.48;;;17.50;;
52764;SDS011;38650;44.536;18.664;2023-12-20T06:35:23;29.27;;;20.75;;
52764;SDS011;38650;44.536;18.664;2023-12-20T06:37:49;31.38;;;22.15;;
52764;SDS011;38650;44.536;18.664;2023-12-20T06:40:15;24.58;;;17.52;;
52764;SDS011;38650;44.536;18.664;2023-12-20T06:42:41;46.97;;;31.48;;
52764;SDS011;38650;44.536;18.664;2023-12-20T06:45:07;49.42;;;33.30;;
52764;SDS011;38650;44.536;18.664;2023-12-20T06:47:33;155.38;;;86.60;;
52764;SDS011;38650;44.536;18.664;2023-12-20T06:49:59;157.95;;;93.38;;
52764;SDS011;38650;44.536;18.664;2023-12-20T06:52:25;112.22;;;66.50;;
52764;SDS011;38650;44.536;18.664;2023-12-20T06:54:51;93.55;;;61.20;;
52764;SDS011;38650;44.536;18.664;2023-12-20T06:57:17;146.07;;;85.95;;
52764;SDS011;38650;44.536;18.664;2023-12-20T06:59:44;136.82;;;76.13;;
52764;SDS011;38650;44.536;18.664;2023-12-20T07:02:10;134.18;;;80.03;;
52764;SDS011;38650;44.536;18.664;2023-12-20T07:04:39;119.22;;;73.38;;
52764;SDS011;38650;44.536;18.664;2023-12-20T07:07:05;154.25;;;90.03;;
52764;SDS011;38650;44.536;18.664;2023-12-20T07:09:32;169.35;;;98.63;;
52764;SDS011;38650;44.536;18.664;2023-12-20T07:11:58;107.18;;;67.05;;
52764;SDS011;38650;44.536;18.664;2023-12-20T07:14:23;102.35;;;63.28;;
52764;SDS011;38650;44.536;18.664;2023-12-20T07:16:49;121.85;;;79.30;;
52764;SDS011;38650;44.536;18.664;2023-12-20T07:19:15;135.80;;;88.20;;
52764;SDS011;38650;44.536;18.664;2023-12-20T07:21:41;285.48;;;178.80;;
52764;SDS011;38650;44.536;18.664;2023-12-20T07:24:07;212.75;;;128.73;;
52764;SDS011;38650;44.536;18.664;2023-12-20T07:26:33;244.27;;;152.23;;
52764;SDS011;38650;44.536;18.664;2023-12-20T07:28:59;265.33;;;168.95;;
52764;SDS011;38650;44.536;18.664;2023-12-20T07:31:25;322.95;;;210.77;;
52764;SDS011;38650;44.536;18.664;2023-12-20T07:33:51;371.15;;;244.27;;
52764;SDS011;38650;44.536;18.664;2023-12-20T07:36:16;378.77;;;257.30;;
52764;SDS011;38650;44.536;18.664;2023-12-20T07:38:42;350.42;;;249.00;;
52764;SDS011;38650;44.536;18.664;2023-12-20T07:41:13;302.88;;;215.45;;
52764;SDS011;38650;44.536;18.664;2023-12-20T07:43:44;260.33;;;182.77;;
52764;SDS011;38650;44.536;18.664;2023-12-20T07:48:40;240.93;;;157.25;;
52764;SDS011;38650;44.536;18.664;2023-12-20T07:51:06;235.82;;;166.80;;
52764;SDS011;38650;44.536;18.664;2023-12-20T07:53:33;240.30;;;170.18;;
52764;SDS011;38650;44.536;18.664;2023-12-20T07:56:00;197.32;;;145.43;;
52764;SDS011;38650;44.536;18.664;2023-12-20T07:58:25;187.27;;;135.77;;
52764;SDS011;38650;44.536;18.664;2023-12-20T08:00:51;172.23;;;128.65;;
52764;SDS011;38650;44.536;18.664;2023-12-20T08:03:17;157.75;;;122.30;;
52764;SDS011;38650;44.536;18.664;2023-12-20T08:05:42;144.68;;;114.28;;
52764;SDS011;38650;44.536;18.664;2023-12-20T08:08:08;143.13;;;114.30;;
52764;SDS011;38650;44.536;18.664;2023-12-20T08:10:34;143.90;;;114.28;;
52764;SDS011;38650;44.536;18.664;2023-12-20T08:13:00;199.02;;;157.98;;
52764;SDS011;38650;44.536;18.664;2023-12-20T08:15:25;231.18;;;183.80;;
52764;SDS011;38650;44.536;18.664;2023-12-20T08:17:51;214.48;;;173.68;;
52764;SDS011;38650;44.536;18.664;2023-12-20T08:20:17;217.70;;;181.00;;
52764;SDS011;38650;44.536;18.664;2023-12-20T08:22:43;225.90;;;188.40;;
52764;SDS011;38650;44.536;18.664;2023-12-20T08:25:08;201.93;;;169.40;;
52764;SDS011;38650;44.536;18.664;2023-12-20T08:27:39;192.77;;;156.35;;
52764;SDS011;38650;44.536;18.664;2023-12-20T08:30:05;172.10;;;140.82;;
52764;SDS011;38650;44.536;18.664;2023-12-20T08:32:33;163.43;;;137.88;;
52764;SDS011;38650;44.536;18.664;2023-12-20T08:34:59;154.18;;;131.35;;
52764;SDS011;38650;44.536;18.664;2023-12-20T08:37:25;141.65;;;121.28;;
52764;SDS011;38650;44.536;18.664;2023-12-20T08:39:51;134.88;;;113.65;;
52764;SDS011;38650;44.536;18.664;2023-12-20T08:42:16;110.20;;;95.35;;
52764;SDS011;38650;44.536;18.664;2023-12-20T08:44:42;100.10;;;89.43;;
52764;SDS011;38650;44.536;18.664;2023-12-20T08:47:08;88.32;;;77.10;;
52764;SDS011;38650;44.536;18.664;2023-12-20T08:49:38;78.22;;;69.88;;
52764;SDS011;38650;44.536;18.664;2023-12-20T08:52:04;73.40;;;65.47;;
52764;SDS011;38650;44.536;18.664;2023-12-20T08:54:30;92.00;;;80.97;;
52764;SDS011;38650;44.536;18.664;2023-12-20T08:56:55;93.63;;;83.35;;
52764;SDS011;38650;44.536;18.664;2023-12-20T08:59:21;147.60;;;129.05;;
52764;SDS011;38650;44.536;18.664;2023-12-20T09:01:48;131.38;;;117.03;;
52764;SDS011;38650;44.536;18.664;2023-12-20T09:04:19;116.82;;;104.28;;
52764;SDS011;38650;44.536;18.664;2023-12-20T09:06:45;124.95;;;110.57;;
52764;SDS011;38650;44.536;18.664;2023-12-20T09:09:10;118.75;;;101.32;;
52764;SDS011;38650;44.536;18.664;2023-12-20T09:11:39;106.10;;;94.88;;
52764;SDS011;38650;44.536;18.664;2023-12-20T09:14:04;100.45;;;90.00;;
52764;SDS011;38650;44.536;18.664;2023-12-20T09:16:30;90.75;;;81.13;;
52764;SDS011;38650;44.536;18.664;2023-12-20T09:18:56;91.90;;;82.05;;
52764;SDS011;38650;44.536;18.664;2023-12-20T09:21:23;90.47;;;79.68;;
52764;SDS011;38650;44.536;18.664;2023-12-20T09:23:49;86.40;;;77.40;;
52764;SDS011;38650;44.536;18.664;2023-12-20T09:26:14;92.90;;;82.72;;
52764;SDS011;38650;44.536;18.664;2023-12-20T09:28:40;116.15;;;101.20;;
52764;SDS011;38650;44.536;18.664;2023-12-20T09:31:06;134.35;;;118.57;;
52764;SDS011;38650;44.536;18.664;2023-12-20T09:33:32;141.82;;;122.82;;
52764;SDS011;38650;44.536;18.664;2023-12-20T09:35:58;126.07;;;112.60;;
52764;SDS011;38650;44.536;18.664;2023-12-20T09:38:24;116.25;;;103.80;;
52764;SDS011;38650;44.536;18.664;2023-12-20T09:40:49;111.45;;;99.50;;
52764;SDS011;38650;44.536;18.664;2023-12-20T09:43:15;117.75;;;104.85;;
52764;SDS011;38650;44.536;18.664;2023-12-20T09:45:46;102.07;;;91.30;;
52764;SDS011;38650;44.536;18.664;2023-12-20T09:48:13;93.68;;;83.68;;
52764;SDS011;38650;44.536;18.664;2023-12-20T09:50:42;91.05;;;81.13;;
52764;SDS011;38650;44.536;18.664;2023-12-20T09:53:09;102.03;;;89.70;;
52764;SDS011;38650;44.536;18.664;2023-12-20T09:55:40;123.40;;;109.88;;
52764;SDS011;38650;44.536;18.664;2023-12-20T09:58:07;115.05;;;102.28;;
52764;SDS011;38650;44.536;18.664;2023-12-20T10:00:36;109.97;;;98.30;;
52764;SDS011;38650;44.536;18.664;2023-12-20T10:03:02;110.30;;;98.18;;
52764;SDS011;38650;44.536;18.664;2023-12-20T10:05:31;112.72;;;100.50;;
52764;SDS011;38650;44.536;18.664;2023-12-20T10:07:58;103.05;;;91.90;;
52764;SDS011;38650;44.536;18.664;2023-12-20T10:10:25;95.60;;;85.00;;
52764;SDS011;38650;44.536;18.664;2023-12-20T10:13:07;88.57;;;79.00;;
52764;SDS011;38650;44.536;18.664;2023-12-20T10:15:34;87.22;;;77.05;;
52764;SDS011;38650;44.536;18.664;2023-12-20T10:18:00;82.15;;;73.25;;
52764;SDS011;38650;44.536;18.664;2023-12-20T10:20:27;77.93;;;69.82;;
52764;SDS011;38650;44.536;18.664;2023-12-20T10:22:54;79.97;;;71.47;;
52764;SDS011;38650;44.536;18.664;2023-12-20T10:25:20;87.28;;;77.97;;
52764;SDS011;38650;44.536;18.664;2023-12-20T10:27:46;90.13;;;80.63;;
52764;SDS011;38650;44.536;18.664;2023-12-20T10:30:13;80.43;;;72.43;;
52764;SDS011;38650;44.536;18.664;2023-12-20T10:32:39;78.50;;;70.35;;
52764;SDS011;38650;44.536;18.664;2023-12-20T10:35:06;79.57;;;71.30;;
52764;SDS011;38650;44.536;18.664;2023-12-20T10:37:35;77.38;;;69.25;;
52764;SDS011;38650;44.536;18.664;2023-12-20T10:40:04;68.07;;;61.13;;
52764;SDS011;38650;44.536;18.664;2023-12-20T10:42:31;76.88;;;68.85;;
52764;SDS011;38650;44.536;18.664;2023-12-20T10:44:59;87.97;;;78.72;;
52764;SDS011;38650;44.536;18.664;2023-12-20T10:47:25;104.25;;;93.15;;
52764;SDS011;38650;44.536;18.664;2023-12-20T10:49:54;102.57;;;91.72;;
52764;SDS011;38650;44.536;18.664;2023-12-20T10:52:22;117.93;;;101.20;;
52764;SDS011;38650;44.536;18.664;2023-12-20T10:54:49;111.20;;;98.18;;
52764;SDS011;38650;44.536;18.664;2023-12-20T10:57:15;93.53;;;81.07;;
52764;SDS011;38650;44.536;18.664;2023-12-20T10:59:49;84.43;;;74.88;;
52764;SDS011;38650;44.536;18.664;2023-12-20T11:02:18;114.95;;;101.85;;
52764;SDS011;38650;44.536;18.664;2023-12-20T11:04:52;102.47;;;91.50;;
52764;SDS011;38650;44.536;18.664;2023-12-20T11:07:23;107.68;;;91.60;;
52764;SDS011;38650;44.536;18.664;2023-12-20T11:09:57;85.30;;;74.35;;
52764;SDS011;38650;44.536;18.664;2023-12-20T11:12:35;107.97;;;91.35;;
52764;SDS011;38650;44.536;18.664;2023-12-20T11:15:10;180.30;;;150.25;;
52764;SDS011;38650;44.536;18.664;2023-12-20T11:17:38;142.77;;;126.43;;
52764;SDS011;38650;44.536;18.664;2023-12-20T11:20:06;111.40;;;99.43;;
52764;SDS011;38650;44.536;18.664;2023-12-20T11:22:33;109.18;;;97.93;;
52764;SDS011;38650;44.536;18.664;2023-12-20T11:25:08;91.65;;;81.90;;
52764;SDS011;38650;44.536;18.664;2023-12-20T11:27:36;84.28;;;75.88;;
52764;SDS011;38650;44.536;18.664;2023-12-20T11:30:07;77.07;;;69.18;;
52764;SDS011;38650;44.536;18.664;2023-12-20T11:32:35;70.90;;;63.70;;
52764;SDS011;38650;44.536;18.664;2023-12-20T11:35:22;76.68;;;68.55;;
52764;SDS011;38650;44.536;18.664;2023-12-20T11:37:52;87.82;;;78.95;;
52764;SDS011;38650;44.536;18.664;2023-12-20T11:40:18;72.03;;;64.75;;
52764;SDS011;38650;44.536;18.664;2023-12-20T11:42:44;91.13;;;81.47;;
52764;SDS011;38650;44.536;18.664;2023-12-20T11:45:13;120.60;;;107.72;;
52764;SDS011;38650;44.536;18.664;2023-12-20T11:47:44;107.07;;;96.00;;
52764;SDS011;38650;44.536;18.664;2023-12-20T11:50:11;99.88;;;90.15;;
52764;SDS011;38650;44.536;18.664;2023-12-20T11:52:37;92.68;;;83.47;;
52764;SDS011;38650;44.536;18.664;2023-12-20T11:55:03;81.55;;;72.97;;
52764;SDS011;38650;44.536;18.664;2023-12-20T11:57:31;71.20;;;63.88;;
52764;SDS011;38650;44.536;18.664;2023-12-20T11:59:57;68.80;;;61.83;;
52764;SDS011;38650;44.536;18.664;2023-12-20T12:02:24;70.45;;;63.35;;
52764;SDS011;38650;44.536;18.664;2023-12-20T12:04:50;53.42;;;48.17;;
52764;SDS011;38650;44.536;18.664;2023-12-20T12:07:16;53.53;;;48.28;;
52764;SDS011;38650;44.536;18.664;2023-12-20T12:09:42;52.97;;;47.40;;
52764;SDS011;38650;44.536;18.664;2023-12-20T12:12:08;47.65;;;42.92;;
52764;SDS011;38650;44.536;18.664;2023-12-20T12:14:34;59.85;;;52.45;;
52764;SDS011;38650;44.536;18.664;2023-12-20T12:17:02;55.17;;;49.17;;
52764;SDS011;38650;44.536;18.664;2023-12-20T12:19:28;53.03;;;47.42;;
52764;SDS011;38650;44.536;18.664;2023-12-20T12:22:06;50.47;;;45.10;;
52764;SDS011;38650;44.536;18.664;2023-12-20T12:24:36;45.80;;;41.10;;
52764;SDS011;38650;44.536;18.664;2023-12-20T12:27:02;43.10;;;38.60;;
52764;SDS011;38650;44.536;18.664;2023-12-20T12:29:28;39.42;;;35.42;;
52764;SDS011;38650;44.536;18.664;2023-12-20T12:31:55;34.08;;;30.75;;
52764;SDS011;38650;44.536;18.664;2023-12-20T12:34:20;33.22;;;29.88;;
52764;SDS011;38650;44.536;18.664;2023-12-20T12:36:46;47.95;;;42.85;;
52764;SDS011;38650;44.536;18.664;2023-12-20T12:39:13;49.75;;;44.38;;
52764;SDS011;38650;44.536;18.664;2023-12-20T12:41:43;60.05;;;52.78;;
52764;SDS011;38650;44.536;18.664;2023-12-20T12:44:08;71.22;;;62.15;;
52764;SDS011;38650;44.536;18.664;2023-12-20T12:46:34;70.50;;;60.53;;
52764;SDS011;38650;44.536;18.664;2023-12-20T12:49:00;65.80;;;58.72;;
52764;SDS011;38650;44.536;18.664;2023-12-20T12:51:26;59.05;;;52.85;;
52764;SDS011;38650;44.536;18.664;2023-12-20T12:53:52;70.03;;;58.85;;
52764;SDS011;38650;44.536;18.664;2023-12-20T12:56:18;79.55;;;70.85;;
52764;SDS011;38650;44.536;18.664;2023-12-20T12:58:44;72.32;;;64.53;;
52764;SDS011;38650;44.536;18.664;2023-12-20T13:01:10;75.13;;;64.32;;
52764;SDS011;38650;44.536;18.664;2023-12-20T13:03:36;117.00;;;104.20;;
52764;SDS011;38650;44.536;18.664;2023-12-20T13:06:02;66.57;;;59.80;;
52764;SDS011;38650;44.536;18.664;2023-12-20T13:08:29;82.78;;;74.28;;
52764;SDS011;38650;44.536;18.664;2023-12-20T13:10:55;62.63;;;56.40;;
52764;SDS011;38650;44.536;18.664;2023-12-20T13:13:23;58.50;;;52.50;;
52764;SDS011;38650;44.536;18.664;2023-12-20T13:15:49;53.00;;;47.47;;
52764;SDS011;38650;44.536;18.664;2023-12-20T13:18:18;52.80;;;47.15;;
52764;SDS011;38650;44.536;18.664;2023-12-20T13:20:44;69.68;;;60.47;;
52764;SDS011;38650;44.536;18.664;2023-12-20T13:23:10;61.78;;;52.40;;
52764;SDS011;38650;44.536;18.664;2023-12-20T13:25:35;60.90;;;53.65;;
52764;SDS011;38650;44.536;18.664;2023-12-20T13:28:01;59.13;;;52.47;;
52764;SDS011;38650;44.536;18.664;2023-12-20T13:30:28;72.13;;;63.30;;
52764;SDS011;38650;44.536;18.664;2023-12-20T13:32:54;63.72;;;56.80;;
52764;SDS011;38650;44.536;18.664;2023-12-20T13:35:20;69.63;;;60.30;;
52764;SDS011;38650;44.536;18.664;2023-12-20T13:37:46;69.95;;;61.42;;
52764;SDS011;38650;44.536;18.664;2023-12-20T13:40:12;74.32;;;62.80;;
52764;SDS011;38650;44.536;18.664;2023-12-20T13:42:38;75.10;;;66.13;;
52764;SDS011;38650;44.536;18.664;2023-12-20T13:45:05;99.32;;;88.30;;
52764;SDS011;38650;44.536;18.664;2023-12-20T13:47:31;95.90;;;85.03;;
52764;SDS011;38650;44.536;18.664;2023-12-20T13:49:57;82.28;;;71.57;;
52764;SDS011;38650;44.536;18.664;2023-12-20T13:52:23;100.80;;;89.43;;
52764;SDS011;38650;44.536;18.664;2023-12-20T13:54:49;90.28;;;80.25;;
52764;SDS011;38650;44.536;18.664;2023-12-20T13:57:15;85.32;;;72.15;;
52764;SDS011;38650;44.536;18.664;2023-12-20T13:59:40;76.57;;;68.43;;
52764;SDS011;38650;44.536;18.664;2023-12-20T14:02:06;75.57;;;67.25;;